Tropical Cyclones
[Index]
Main Index Home Page Stock Weather Photos Extreme Storms Discussion Storm News and Storm Chasing Reports Tropical Cyclones / Hurricanes / Typhoons Weather Data and Links Wild Fires / Bushfires Weather Observation Techniques Weather Picture Catalogue Tornado Pictures and Reports Stock Video Footage and DVDs for sale
Season 2002-2003 Tropical Cyclone KALUNDE Track Map
Season 2002-2003 Summaries: [BoM-AU] [JTWC-AU] [JTWC-SIO] [JTWC-SPAC] [JTWC-SH]
<<- Previous TC | JTWC 2002-2003 Season | Next TC ->>

click for intensity scale information  Lat/long Grid: Show Hide

 Date Labels: Show Hide

Joint Typhoon Warning Centre Cyclone Data

Name: KALUNDE

03 Mar 2003 18:00 UTC to 16 Mar 2003 00:00 UTC

    date/time    lat    long     hPa   cat  kts
2003-03-03 18   10.7    78.4    1006         15          
2003-03-04 00   10.9    78.5    1006         15          
2003-03-04 06   11.2    78.6    1002         25          
2003-03-04 12   11.5    78.7    1002         25          
2003-03-04 18   11.5    78.4    1000         30          
2003-03-05 00   11.5    78.0     997         35          
2003-03-05 06   11.3    77.5    1000         30          
2003-03-05 12   11.1    77.0     997         35          
2003-03-05 18   10.9    76.7     994    1    40          
2003-03-06 00   11.1    76.5     994    1    40          
2003-03-06 06   11.2    76.2     991    1    45          
2003-03-06 12   11.5    75.7     984    2    55          
2003-03-06 18   11.8    75.0     984    2    55          
2003-03-07 00   12.1    74.3     976    2    65          
2003-03-07 06   12.5    73.6     967    3    75          
2003-03-07 12   13.0    72.8     944    4   100          
2003-03-07 18   13.4    72.0     938    4   105          
2003-03-08 00   13.7    71.2     910    5   130          
2003-03-08 06   14.0    70.4     898    5   140          
2003-03-08 12   14.4    69.7     910    5   130          
2003-03-08 18   14.8    69.2     910    5   130          
2003-03-09 00   15.3    68.8     922    4   120          
2003-03-09 06   15.7    68.3     922    4   120          
2003-03-09 12   16.1    67.9     927    4   115          
2003-03-09 18   16.4    67.5     927    4   115          
2003-03-10 00   16.7    67.1     927    4   115          
2003-03-10 06   17.0    66.7     927    4   115          
2003-03-10 12   17.4    66.4     944    4   100          
2003-03-10 18   17.7    66.0     944    4   100          
2003-03-11 00   17.9    65.6     944    4   100          
2003-03-11 06   18.1    65.2     944    4   100          
2003-03-11 12   18.4    64.9     944    4   100          
2003-03-11 18   18.6    64.6     944    4   100          
2003-03-12 00   18.8    64.3     938    4   105          
2003-03-12 06   19.1    64.1     938    4   105          
2003-03-12 12   19.5    63.9     938    4   105          
2003-03-12 18   20.0    63.9     954    3    90          
2003-03-13 00   20.5    64.1     954    3    90          
2003-03-13 06   21.1    64.3     954    3    90          
2003-03-13 12   21.8    64.5     958    3    85          
2003-03-13 18   22.4    64.8     963    3    80          
2003-03-14 00   23.2    64.9     976    2    65          
2003-03-14 06   24.0    65.1     976    2    65          
2003-03-14 12   24.8    65.2     984    2    55          
2003-03-14 18   25.6    65.3     987    1    50          
2003-03-15 00   26.5    65.6     994    1    40          
2003-03-15 06   27.5    66.1     997         35          
2003-03-15 12   28.7    66.2    1000         30          
2003-03-15 18   29.6    66.4    1002         25          
2003-03-16 00   30.4    66.7    1002         25          
Winds are 1-min average.

Tropical cyclone tracks developed by Michael Bath using data from the Joint Typhoon Warning Centre Best Tracks and Google Maps.


[Australian Severe Weather index] [Copyright Notice] [Email Contacts] [Search This Site] [Privacy Policy]
Document: tropical_cyclone_kalunde.htm Updated: 28 June 2017